createdAt,value
2023-03-25T00:00:56.853Z,58.19
2023-03-25T00:01:56.746Z,58.17
2023-03-25T00:02:56.881Z,54.91
2023-03-25T00:03:56.741Z,56.63
2023-03-25T00:04:56.652Z,56.84
2023-03-25T00:05:56.534Z,56.22
2023-03-25T00:06:56.588Z,55.97
2023-03-25T00:07:56.754Z,56.47
2023-03-25T00:08:56.552Z,49.86
2023-03-25T00:09:56.538Z,55.20
2023-03-25T00:10:56.528Z,56.20
2023-03-25T00:11:56.512Z,58.25
2023-03-25T00:12:56.545Z,60.66
2023-03-25T00:13:56.611Z,54.50
2023-03-25T00:14:56.844Z,56.47
2023-03-25T00:15:57.463Z,58.96
2023-03-25T00:16:56.537Z,56.12
2023-03-25T00:17:56.504Z,60.09
2023-03-25T00:18:56.685Z,58.59
2023-03-25T00:19:56.435Z,52.96
2023-03-25T00:20:56.412Z,60.72
2023-03-25T00:21:56.451Z,57.15
2023-03-25T00:22:58.008Z,59.02
2023-03-25T00:23:56.494Z,57.80
2023-03-25T00:24:56.524Z,56.06
2023-03-25T00:25:57.113Z,54.81
2023-03-25T00:26:56.380Z,54.66
2023-03-25T00:27:56.445Z,53.80
2023-03-25T00:28:56.390Z,55.70
2023-03-25T00:29:56.347Z,52.78
2023-03-25T00:30:56.443Z,51.03
2023-03-25T00:31:56.277Z,53.76
2023-03-25T00:32:56.389Z,56.57
2023-03-25T00:33:56.322Z,50.04
2023-03-25T00:34:56.323Z,54.49
2023-03-25T00:35:56.403Z,58.99
2023-03-25T00:36:56.347Z,55.69
2023-03-25T00:37:56.276Z,57.07
2023-03-25T00:38:56.298Z,52.66
2023-03-25T00:39:56.297Z,56.79
2023-03-25T00:40:56.318Z,52.37
2023-03-25T00:41:56.811Z,55.97
2023-03-25T00:42:56.239Z,57.00
2023-03-25T00:43:56.303Z,59.88
2023-03-25T00:44:56.271Z,54.47
2023-03-25T00:45:56.193Z,53.74
2023-03-25T00:46:56.216Z,53.76
2023-03-25T00:47:56.193Z,51.22
2023-03-25T00:48:56.158Z,59.05
2023-03-25T00:49:56.122Z,53.81
2023-03-25T00:50:56.781Z,52.31
2023-03-25T00:51:56.346Z,56.60
2023-03-25T00:52:56.123Z,54.17
2023-03-25T00:53:56.196Z,55.38
2023-03-25T00:54:56.057Z,49.46
2023-03-25T00:55:56.187Z,57.81
2023-03-25T00:56:56.289Z,56.18
2023-03-25T00:57:56.051Z,56.33
2023-03-25T00:58:56.741Z,58.49
2023-03-25T00:59:56.026Z,57.66
2023-03-25T01:00:56.082Z,56.67
2023-03-25T01:01:56.013Z,57.20
2023-03-25T01:02:56.187Z,51.02
2023-03-25T01:03:55.973Z,52.87
2023-03-25T01:04:55.963Z,54.38
2023-03-25T01:05:55.970Z,49.46
2023-03-25T01:06:55.969Z,54.34
2023-03-25T01:07:56.058Z,49.34
2023-03-25T01:08:56.009Z,46.58
2023-03-25T01:09:55.905Z,48.44
2023-03-25T01:10:55.902Z,49.22
2023-03-25T01:11:55.939Z,52.14
2023-03-25T01:12:55.900Z,48.35
2023-03-25T01:13:56.745Z,54.36
2023-03-25T01:14:56.730Z,47.18
2023-03-25T01:15:56.054Z,49.96
2023-03-25T01:16:55.888Z,54.68
2023-03-25T01:17:55.972Z,48.99
2023-03-25T01:18:55.846Z,55.64
2023-03-25T01:19:55.846Z,52.82
2023-03-25T01:20:55.821Z,59.20
2023-03-25T01:21:55.926Z,49.37
2023-03-25T01:22:56.290Z,54.62
2023-03-25T01:23:55.830Z,51.38
2023-03-25T01:24:55.757Z,56.23
2023-03-25T01:25:55.771Z,50.66
2023-03-25T01:26:55.996Z,53.11
2023-03-25T01:27:55.730Z,52.53
2023-03-25T01:28:55.821Z,54.67
2023-03-25T01:29:55.693Z,53.40
2023-03-25T01:30:56.572Z,52.02
2023-03-25T01:31:55.678Z,58.78
2023-03-25T01:32:55.819Z,57.42
2023-03-25T01:33:55.725Z,56.02
2023-03-25T01:34:55.721Z,50.84
2023-03-25T01:35:55.668Z,53.81
2023-03-25T01:36:55.783Z,55.64
2023-03-25T01:37:55.792Z,47.69
2023-03-25T01:38:55.646Z,54.59
2023-03-25T01:39:56.587Z,56.53
2023-03-25T01:40:55.640Z,47.50
2023-03-25T01:41:55.637Z,43.72
2023-03-25T01:42:55.675Z,47.60
2023-03-25T01:43:55.942Z,55.24
2023-03-25T01:44:55.617Z,53.38
2023-03-25T01:45:55.558Z,51.37
2023-03-25T01:46:55.843Z,56.05
2023-03-25T01:47:56.637Z,54.77
2023-03-25T01:48:55.535Z,55.81
2023-03-25T01:49:55.488Z,47.94
2023-03-25T01:50:55.532Z,54.04
2023-03-25T01:51:56.275Z,50.84
2023-03-25T01:52:55.631Z,53.39
2023-03-25T01:53:56.511Z,53.34
2023-03-25T01:54:55.543Z,59.37
2023-03-25T01:55:55.595Z,56.56
2023-03-25T01:56:55.519Z,51.36
2023-03-25T01:57:55.480Z,55.47
2023-03-25T01:58:55.486Z,54.01
2023-03-25T01:59:55.457Z,56.26
2023-03-25T02:00:55.695Z,54.39
2023-03-25T02:01:55.410Z,51.84
2023-03-25T02:02:55.547Z,49.54
2023-03-25T02:03:55.471Z,59.01
2023-03-25T02:04:55.408Z,57.00
2023-03-25T02:05:55.393Z,55.69
2023-03-25T02:06:55.575Z,50.53
2023-03-25T02:07:55.555Z,52.66
2023-03-25T02:08:55.397Z,53.53
2023-03-25T02:09:55.359Z,48.20
2023-03-25T02:10:55.284Z,55.71
2023-03-25T02:11:55.338Z,56.95
2023-03-25T02:12:55.312Z,44.33
2023-03-25T02:13:55.389Z,50.69
2023-03-25T02:14:55.393Z,51.21
2023-03-25T02:15:55.335Z,52.62
2023-03-25T02:16:55.247Z,56.59
2023-03-25T02:17:55.294Z,49.96
2023-03-25T02:18:55.282Z,45.44
2023-03-25T02:19:55.431Z,52.34
2023-03-25T02:20:55.228Z,55.69
2023-03-25T02:21:55.314Z,58.94
2023-03-25T02:22:55.214Z,58.66
2023-03-25T02:23:55.221Z,58.63
2023-03-25T02:24:55.197Z,59.10
2023-03-25T02:25:55.159Z,53.36
2023-03-25T02:26:56.248Z,56.72
2023-03-25T02:27:55.186Z,53.67
2023-03-25T02:28:55.318Z,59.14
2023-03-25T02:29:55.144Z,58.58
2023-03-25T02:30:55.390Z,56.28
2023-03-25T02:31:55.248Z,46.97
2023-03-25T02:32:55.140Z,51.23
2023-03-25T02:33:55.220Z,58.00
2023-03-25T02:34:55.053Z,54.54
2023-03-25T02:35:55.370Z,49.69
2023-03-25T02:36:55.053Z,50.03
2023-03-25T02:37:55.073Z,48.73
2023-03-25T02:38:55.080Z,54.04
2023-03-25T02:39:55.091Z,51.22
2023-03-25T02:40:55.081Z,51.28
2023-03-25T02:41:55.046Z,54.89
2023-03-25T02:42:55.148Z,49.69
2023-03-25T02:43:55.094Z,52.95
2023-03-25T02:44:55.079Z,55.44
2023-03-25T02:45:55.021Z,56.31
2023-03-25T02:46:54.919Z,55.88
2023-03-25T02:47:54.953Z,46.18
2023-03-25T02:48:54.933Z,47.63
2023-03-25T02:49:55.067Z,50.99
2023-03-25T02:50:54.957Z,50.42
2023-03-25T02:51:54.912Z,55.21
2023-03-25T02:52:54.835Z,52.29
2023-03-25T02:53:54.889Z,45.76
2023-03-25T02:54:54.864Z,39.98
2023-03-25T02:55:54.842Z,50.20
2023-03-25T02:56:55.782Z,50.27
2023-03-25T02:57:54.840Z,50.95
2023-03-25T02:58:54.862Z,54.08
2023-03-25T02:59:54.832Z,51.51
2023-03-25T03:00:54.875Z,45.90
2023-03-25T03:01:54.807Z,52.02
2023-03-25T03:02:54.894Z,53.61
2023-03-25T03:03:54.820Z,49.69
2023-03-25T03:04:54.894Z,51.41
2023-03-25T03:05:54.869Z,53.92
2023-03-25T03:06:54.739Z,47.92
2023-03-25T03:07:54.780Z,50.27
2023-03-25T03:08:54.739Z,49.54
2023-03-25T03:09:54.717Z,46.18
2023-03-25T03:10:54.649Z,43.21
2023-03-25T03:11:54.731Z,50.37
2023-03-25T03:12:54.797Z,48.37
2023-03-25T03:13:54.809Z,50.62
2023-03-25T03:14:54.661Z,45.22
2023-03-25T03:15:54.734Z,51.99
2023-03-25T03:16:54.712Z,49.36
2023-03-25T03:17:54.709Z,46.02
2023-03-25T03:18:54.639Z,53.74
2023-03-25T03:19:54.791Z,50.47
2023-03-25T03:20:54.588Z,46.66
2023-03-25T03:21:54.596Z,49.37
2023-03-25T03:22:54.625Z,43.50
2023-03-25T03:23:54.637Z,50.80
2023-03-25T03:24:54.576Z,50.84
2023-03-25T03:25:54.611Z,50.14
2023-03-25T03:26:54.566Z,51.72
2023-03-25T03:27:54.529Z,42.91
2023-03-25T03:28:54.761Z,54.18
2023-03-25T03:29:54.517Z,53.05
2023-03-25T03:30:54.564Z,48.01
2023-03-25T03:32:05.993Z,51.74
2023-03-25T03:32:55.554Z,55.87
2023-03-25T03:33:55.239Z,56.58
2023-03-25T03:34:54.563Z,56.86
2023-03-25T03:35:54.715Z,51.85
2023-03-25T03:36:54.489Z,53.89
2023-03-25T03:37:54.413Z,54.66
2023-03-25T03:38:54.459Z,49.95
2023-03-25T03:39:54.420Z,48.38
2023-03-25T03:40:54.449Z,51.86
2023-03-25T03:41:54.394Z,51.31
2023-03-25T03:42:54.528Z,53.24
2023-03-25T03:43:54.490Z,50.45
2023-03-25T03:44:55.041Z,53.81
2023-03-25T03:45:54.691Z,51.00
2023-03-25T03:46:54.447Z,53.02
2023-03-25T03:47:54.445Z,53.45
2023-03-25T03:48:54.379Z,49.57
2023-03-25T03:49:54.463Z,57.31
2023-03-25T03:50:54.319Z,52.16
2023-03-25T03:51:54.403Z,47.81
2023-03-25T03:52:54.321Z,50.71
2023-03-25T03:53:54.277Z,47.66
2023-03-25T03:54:54.311Z,46.66
2023-03-25T03:55:54.269Z,50.62
2023-03-25T03:56:55.218Z,48.00
2023-03-25T03:57:54.332Z,50.83
2023-03-25T03:58:54.513Z,47.43
2023-03-25T03:59:54.214Z,55.55
2023-03-25T04:00:54.229Z,52.11
2023-03-25T04:01:54.353Z,48.36
2023-03-25T04:02:54.330Z,51.99
2023-03-25T04:03:54.336Z,53.62
2023-03-25T04:04:54.204Z,54.50
2023-03-25T04:05:54.195Z,47.48
2023-03-25T04:06:55.173Z,44.60
2023-03-25T04:07:54.150Z,50.33
2023-03-25T04:08:54.139Z,50.66
2023-03-25T04:09:54.136Z,49.63
2023-03-25T04:10:54.225Z,55.52
2023-03-25T04:11:54.095Z,53.29
2023-03-25T04:12:54.108Z,52.99
2023-03-25T04:13:54.049Z,58.46
2023-03-25T04:14:54.192Z,50.46
2023-03-25T04:15:54.204Z,50.88
2023-03-25T04:16:54.061Z,56.20
2023-03-25T04:17:54.202Z,54.97
2023-03-25T04:18:54.811Z,53.99
2023-03-25T04:19:54.097Z,52.16
2023-03-25T04:20:54.034Z,52.97
2023-03-25T04:21:54.030Z,52.53
2023-03-25T04:22:54.006Z,53.55
2023-03-25T04:23:54.028Z,55.60
2023-03-25T04:24:54.016Z,57.30
2023-03-25T04:25:54.081Z,53.57
2023-03-25T04:26:53.943Z,54.95
2023-03-25T04:27:54.003Z,56.52
2023-03-25T04:28:54.009Z,55.91
2023-03-25T04:29:53.939Z,57.30
2023-03-25T04:30:53.906Z,50.00
2023-03-25T04:31:53.889Z,54.63
2023-03-25T04:32:53.886Z,52.74
2023-03-25T04:33:54.689Z,50.20
2023-03-25T04:34:53.971Z,56.15
2023-03-25T04:35:54.060Z,53.06
2023-03-25T04:36:54.851Z,52.19
2023-03-25T04:37:53.823Z,50.21
2023-03-25T04:38:54.003Z,53.58
2023-03-25T04:39:53.930Z,57.01
2023-03-25T04:40:54.832Z,54.37
2023-03-25T04:41:53.805Z,57.54
2023-03-25T04:42:53.818Z,57.70
2023-03-25T04:43:53.829Z,53.69
2023-03-25T04:44:53.792Z,49.20
2023-03-25T04:45:54.349Z,49.64
2023-03-25T04:46:53.840Z,55.87
2023-03-25T04:47:53.815Z,49.18
2023-03-25T04:48:53.848Z,53.60
2023-03-25T04:49:53.730Z,51.96
2023-03-25T04:50:53.733Z,53.14
2023-03-25T04:51:53.703Z,56.73
2023-03-25T04:52:53.673Z,58.78
2023-03-25T04:53:53.684Z,54.96
2023-03-25T04:54:53.679Z,50.81
2023-03-25T04:55:53.848Z,55.65
2023-03-25T04:56:53.744Z,50.26
2023-03-25T04:57:53.655Z,53.79
2023-03-25T04:58:53.700Z,55.44
2023-03-25T04:59:53.622Z,52.47
2023-03-25T05:00:53.614Z,60.04
2023-03-25T05:01:53.863Z,56.92
2023-03-25T05:02:53.657Z,54.68
2023-03-25T05:03:54.534Z,56.23
2023-03-25T05:04:53.642Z,50.77
2023-03-25T05:05:53.780Z,52.96
2023-03-25T05:06:53.619Z,53.72
2023-03-25T05:07:53.580Z,56.61
2023-03-25T05:08:53.628Z,56.21
2023-03-25T05:09:53.612Z,54.23
2023-03-25T05:10:53.666Z,56.49
2023-03-25T05:11:53.625Z,59.30
2023-03-25T05:12:53.545Z,61.43
2023-03-25T05:13:53.559Z,61.21
2023-03-25T05:14:53.558Z,61.03
2023-03-25T05:15:53.911Z,60.72
2023-03-25T05:16:53.413Z,63.36
2023-03-25T05:17:54.225Z,60.09
2023-03-25T05:18:53.396Z,56.06
2023-03-25T05:19:53.451Z,59.08
2023-03-25T05:20:53.400Z,58.16
2023-03-25T05:21:53.376Z,63.09
2023-03-25T05:22:53.400Z,58.75
2023-03-25T05:23:53.440Z,57.93
2023-03-25T05:24:53.431Z,61.77
2023-03-25T05:25:53.666Z,59.99
2023-03-25T05:26:53.433Z,58.93
2023-03-25T05:27:53.333Z,59.16
2023-03-25T05:28:53.317Z,60.93
2023-03-25T05:29:53.344Z,60.56
2023-03-25T05:30:53.293Z,61.47
2023-03-25T05:31:54.164Z,60.71
2023-03-25T05:32:56.395Z,59.36
2023-03-25T05:33:53.479Z,57.45
2023-03-25T05:34:53.293Z,58.25
2023-03-25T05:35:53.421Z,60.18
2023-03-25T05:36:53.258Z,60.24
2023-03-25T05:37:53.247Z,59.41
2023-03-25T05:38:53.195Z,62.85
2023-03-25T05:39:53.220Z,58.25
2023-03-25T05:40:53.413Z,55.36
2023-03-25T05:41:53.226Z,58.45
2023-03-25T05:42:53.259Z,59.24
2023-03-25T05:43:53.194Z,58.88
2023-03-25T05:44:53.234Z,61.17
2023-03-25T05:45:53.407Z,63.23
2023-03-25T05:46:53.202Z,59.88
2023-03-25T05:47:53.344Z,58.99
2023-03-25T05:48:53.092Z,57.69
2023-03-25T05:49:53.154Z,56.81
2023-03-25T05:50:53.052Z,57.06
2023-03-25T05:51:53.076Z,60.75
2023-03-25T05:52:53.058Z,59.67
2023-03-25T05:53:53.052Z,59.26
2023-03-25T05:54:54.134Z,59.14
2023-03-25T05:55:53.188Z,59.33
2023-03-25T05:56:53.251Z,60.33
2023-03-25T05:57:53.068Z,59.41
2023-03-25T05:58:53.134Z,59.51
2023-03-25T05:59:53.060Z,61.09
2023-03-25T06:00:52.993Z,59.59
2023-03-25T06:01:53.070Z,58.53
2023-03-25T06:02:53.169Z,60.07
2023-03-25T06:03:53.161Z,62.12
2023-03-25T06:04:53.002Z,60.83
2023-03-25T06:05:52.940Z,62.96
2023-03-25T06:06:52.950Z,59.91
2023-03-25T06:07:52.990Z,59.74
2023-03-25T06:08:52.972Z,57.84
2023-03-25T06:09:52.912Z,58.51
2023-03-25T06:10:52.995Z,62.56
2023-03-25T06:11:52.966Z,58.59
2023-03-25T06:12:52.969Z,58.92
2023-03-25T06:13:52.938Z,61.36
2023-03-25T06:14:52.943Z,59.03
2023-03-25T06:15:53.205Z,59.78
2023-03-25T06:16:52.850Z,61.74
2023-03-25T06:17:53.032Z,60.15
2023-03-25T06:33:42.940Z,58.02
2023-03-25T06:34:24.305Z,58.04
2023-03-25T06:35:24.436Z,59.81
2023-03-25T06:36:24.340Z,61.06
2023-03-25T06:37:23.324Z,58.86
2023-03-25T06:38:23.260Z,59.39
2023-03-25T06:39:23.381Z,59.61
2023-03-25T06:40:23.304Z,57.77
2023-03-25T06:41:23.254Z,57.98
2023-03-25T06:42:23.301Z,58.49
2023-03-25T06:43:23.386Z,58.99
2023-03-25T06:44:24.548Z,60.88
2023-03-25T06:45:23.245Z,60.77
2023-03-25T06:46:23.332Z,59.13
2023-03-25T06:47:23.257Z,56.25
2023-03-25T06:48:23.199Z,60.27
2023-03-25T06:49:23.203Z,56.05
2023-03-25T06:50:23.229Z,58.54
2023-03-25T06:51:23.176Z,60.42
2023-03-25T06:52:23.162Z,57.91
2023-03-25T06:53:23.216Z,56.36
2023-03-25T06:54:23.161Z,60.35
2023-03-25T06:55:23.891Z,55.44
2023-03-25T06:56:23.123Z,59.22
2023-03-25T06:57:23.153Z,58.59
2023-03-25T06:58:23.121Z,57.45
2023-03-25T06:59:23.193Z,57.22
2023-03-25T07:00:23.108Z,57.11
2023-03-25T07:01:23.071Z,57.99
2023-03-25T07:02:23.166Z,57.77
2023-03-25T07:03:23.042Z,58.20
2023-03-25T07:04:23.089Z,59.74
2023-03-25T07:05:23.178Z,56.20
2023-03-25T07:06:23.098Z,58.26
2023-03-25T07:07:23.005Z,56.09
2023-03-25T07:08:23.103Z,58.51
2023-03-25T07:09:23.053Z,55.52
2023-03-25T07:10:23.028Z,57.48
2023-03-25T07:11:22.995Z,57.80
2023-03-25T07:12:22.967Z,59.98
2023-03-25T07:13:23.009Z,58.76
2023-03-25T07:14:23.038Z,57.03
2023-03-25T07:15:23.031Z,58.27
2023-03-25T07:16:22.984Z,60.17
2023-03-25T07:17:22.985Z,59.76
2023-03-25T07:18:22.921Z,59.37
2023-03-25T07:19:22.916Z,60.96
2023-03-25T07:20:22.976Z,59.30
2023-03-25T07:21:22.878Z,58.64
2023-03-25T07:22:22.880Z,59.89
2023-03-25T07:23:22.872Z,60.48
2023-03-25T07:24:22.832Z,55.07
2023-03-25T07:25:22.999Z,57.22
2023-03-25T07:26:22.843Z,58.35
2023-03-25T07:27:23.784Z,60.59
2023-03-25T07:28:22.790Z,61.58
2023-03-25T07:29:23.789Z,59.48
2023-03-25T07:30:22.813Z,60.66
2023-03-25T07:31:22.811Z,57.43
2023-03-25T07:32:22.749Z,59.83
2023-03-25T07:33:23.781Z,57.68
2023-03-25T07:34:22.760Z,59.93
2023-03-25T07:35:22.799Z,61.56
2023-03-25T07:36:22.777Z,59.64
2023-03-25T07:37:22.729Z,61.84
2023-03-25T07:38:22.720Z,60.88
2023-03-25T07:39:22.702Z,61.23
2023-03-25T07:40:22.693Z,60.81
2023-03-25T07:41:22.708Z,60.02
2023-03-25T07:42:22.681Z,61.54
2023-03-25T07:43:22.690Z,60.10
2023-03-25T07:44:22.639Z,59.39
2023-03-25T07:45:22.688Z,59.65
2023-03-25T07:46:22.698Z,58.87
2023-03-25T07:47:22.628Z,59.48
2023-03-25T07:48:22.815Z,60.38
2023-03-25T07:49:22.586Z,58.40
2023-03-25T07:50:24.888Z,60.07
2023-03-25T07:51:23.618Z,60.47
2023-03-25T07:52:22.605Z,60.25
2023-03-25T07:53:22.620Z,60.46
2023-03-25T07:54:22.582Z,60.30
2023-03-25T07:55:22.609Z,60.89
2023-03-25T07:56:22.575Z,61.31
2023-03-25T07:57:22.575Z,60.22
2023-03-25T07:58:22.515Z,60.54
2023-03-25T07:59:22.521Z,59.94
2023-03-25T08:00:22.510Z,58.03
2023-03-25T08:01:22.565Z,60.45
2023-03-25T08:02:23.420Z,59.16
2023-03-25T08:03:22.506Z,60.56
2023-03-25T08:04:22.498Z,59.64
2023-03-25T08:05:22.521Z,60.93
2023-03-25T08:06:22.440Z,58.84
2023-03-25T08:07:22.416Z,60.85
2023-03-25T08:08:22.399Z,59.93
2023-03-25T08:09:22.483Z,61.00
2023-03-25T08:10:22.411Z,60.08
2023-03-25T08:11:22.437Z,59.17
2023-03-25T08:12:23.332Z,58.98
2023-03-25T08:13:22.335Z,60.67
2023-03-25T08:14:22.374Z,60.42
2023-03-25T08:15:22.326Z,61.62
2023-03-25T08:16:22.368Z,59.88
2023-03-25T08:17:22.406Z,59.54
2023-03-25T08:18:22.337Z,62.31
2023-03-25T08:19:22.372Z,60.05
2023-03-25T08:20:22.376Z,60.43
2023-03-25T08:21:22.252Z,60.77
2023-03-25T08:22:22.279Z,59.92
2023-03-25T08:23:22.249Z,62.41
2023-03-25T08:24:22.198Z,61.57
2023-03-25T08:25:22.231Z,61.14
2023-03-25T08:26:22.226Z,60.04
2023-03-25T08:27:22.402Z,59.01
2023-03-25T08:28:22.261Z,60.81
2023-03-25T08:29:22.378Z,60.67
2023-03-25T08:30:22.240Z,61.05
2023-03-25T08:31:22.303Z,60.94
2023-03-25T08:32:22.231Z,61.56
2023-03-25T08:33:22.145Z,62.62
2023-03-25T08:34:22.151Z,61.84
2023-03-25T08:35:22.200Z,62.57
2023-03-25T08:36:22.139Z,63.16
2023-03-25T08:37:22.978Z,60.78
2023-03-25T08:38:22.109Z,59.58
2023-03-25T08:39:22.136Z,60.44
2023-03-25T08:40:22.129Z,61.65
2023-03-25T08:41:22.103Z,61.10
2023-03-25T08:42:22.046Z,60.69
2023-03-25T08:43:22.085Z,59.79
2023-03-25T08:44:22.080Z,59.18
2023-03-25T08:45:22.114Z,59.88
2023-03-25T08:46:22.097Z,61.57
2023-03-25T08:47:22.038Z,61.01
2023-03-25T08:48:22.080Z,61.76
2023-03-25T08:49:22.049Z,61.53
2023-03-25T08:50:21.988Z,59.11
2023-03-25T08:51:22.007Z,61.13
2023-03-25T08:52:22.048Z,62.23
2023-03-25T08:53:21.984Z,58.96
2023-03-25T08:54:22.000Z,60.06
2023-03-25T08:55:21.970Z,58.90
2023-03-25T08:56:21.916Z,60.87
2023-03-25T08:57:21.941Z,60.98
2023-03-25T08:58:21.997Z,61.43
2023-03-25T08:59:21.924Z,62.23
2023-03-25T09:00:21.939Z,61.50
2023-03-25T09:01:21.988Z,58.56
2023-03-25T09:02:22.048Z,60.39
2023-03-25T09:03:22.359Z,58.53
2023-03-25T09:04:21.912Z,61.23
2023-03-25T09:05:21.845Z,60.08
2023-03-25T09:06:21.989Z,60.01
2023-03-25T09:07:21.857Z,61.09
2023-03-25T09:08:21.797Z,60.37
2023-03-25T09:16:22.233Z,59.26
2023-03-25T09:23:12.495Z,63.37
2023-03-25T09:24:13.934Z,61.56
2023-03-25T09:32:20.555Z,63.43
2023-03-25T09:38:47.686Z,61.28
2023-03-25T09:39:48.091Z,63.62
2023-03-25T09:40:48.183Z,61.82
2023-03-25T09:41:47.701Z,62.00
2023-03-25T09:42:56.592Z,59.98
2023-03-25T09:43:55.942Z,61.34
2023-03-25T09:52:56.463Z,63.24
2023-03-25T09:53:55.433Z,59.45
2023-03-25T09:54:56.347Z,58.69
2023-03-25T10:07:06.977Z,63.64
2023-03-25T10:08:07.696Z,62.38
2023-03-25T10:09:06.888Z,63.88
2023-03-25T10:10:06.979Z,63.40
2023-03-25T10:11:06.863Z,63.03
2023-03-25T10:12:06.870Z,62.63
2023-03-25T10:13:07.347Z,61.19
2023-03-25T10:24:20.735Z,62.70
2023-03-25T10:25:18.306Z,61.81
2023-03-25T10:46:16.699Z,60.80
2023-03-25T10:54:37.574Z,59.55
2023-03-25T10:55:28.404Z,58.16
2023-03-25T10:56:23.310Z,58.49
2023-03-25T10:57:31.118Z,59.88
2023-03-25T10:58:21.618Z,60.52
2023-03-25T11:11:39.986Z,60.47
2023-03-25T11:22:09.062Z,61.19
2023-03-25T11:35:58.483Z,63.26
2023-03-25T11:36:58.310Z,62.20
2023-03-25T11:37:58.412Z,64.16
2023-03-25T11:38:58.612Z,63.91
2023-03-25T11:39:58.244Z,64.64
2023-03-25T11:51:48.038Z,64.13
2023-03-25T11:52:48.102Z,64.74
2023-03-25T11:53:49.589Z,62.38
2023-03-25T11:54:49.644Z,63.70
2023-03-25T11:55:49.854Z,63.97
2023-03-25T11:56:49.407Z,64.81
2023-03-25T11:57:49.140Z,62.44
2023-03-25T11:58:49.069Z,62.97
2023-03-25T11:59:49.058Z,63.67
2023-03-25T12:00:48.981Z,64.85
2023-03-25T12:01:49.090Z,61.81
2023-03-25T12:02:49.062Z,61.98
2023-03-25T12:08:26.269Z,61.62
2023-03-25T12:09:26.004Z,60.90
2023-03-25T12:10:25.826Z,61.26
2023-03-25T12:11:27.438Z,62.64
2023-03-25T12:12:26.893Z,62.43
2023-03-25T12:13:26.855Z,61.61
2023-03-25T12:14:26.882Z,63.51
2023-03-25T12:15:26.777Z,62.14
2023-03-25T12:16:27.123Z,61.06
2023-03-25T12:17:26.832Z,61.13
2023-03-25T12:18:28.449Z,62.67
2023-03-25T12:19:26.909Z,62.09
2023-03-25T12:20:26.791Z,62.74
2023-03-25T12:21:27.367Z,62.86
2023-03-25T12:22:28.608Z,61.62
2023-03-25T12:23:27.332Z,63.20
2023-03-25T12:24:26.780Z,62.13
2023-03-25T12:25:26.749Z,61.46
2023-03-25T12:26:26.702Z,62.80
2023-03-25T12:27:26.653Z,62.51
2023-03-25T12:28:27.047Z,60.96
2023-03-25T12:33:19.378Z,61.37
2023-03-25T12:34:10.772Z,63.85
2023-03-25T12:35:39.723Z,63.30
2023-03-25T12:36:12.563Z,60.87
2023-03-25T12:37:11.893Z,61.66
2023-03-25T12:38:14.952Z,61.16
2023-03-25T12:39:12.125Z,60.36
2023-03-25T12:40:12.290Z,61.42
2023-03-25T12:48:28.433Z,63.77
2023-03-25T12:49:33.249Z,62.24
2023-03-25T12:50:23.451Z,63.43
2023-03-25T12:51:28.025Z,62.97
2023-03-25T12:52:34.887Z,63.65
2023-03-25T12:53:25.612Z,64.32
2023-03-25T12:54:59.959Z,64.80
2023-03-25T12:55:35.109Z,59.85
2023-03-25T12:56:25.970Z,63.28
2023-03-25T12:57:26.202Z,62.38
2023-03-25T12:58:24.256Z,62.96
2023-03-25T12:59:27.917Z,63.61
2023-03-25T13:00:31.950Z,64.46
2023-03-25T13:01:37.241Z,60.95
2023-03-25T13:02:24.496Z,64.05
2023-03-25T13:03:33.258Z,61.31
2023-03-25T13:04:35.263Z,62.61
2023-03-25T13:05:24.343Z,61.21
2023-03-25T13:06:26.336Z,62.08
2023-03-25T13:07:34.496Z,62.85
2023-03-25T13:12:05.785Z,62.49
2023-03-25T13:13:09.570Z,63.20
2023-03-25T13:14:07.301Z,61.97
2023-03-25T13:15:10.535Z,60.85
2023-03-25T13:16:07.732Z,63.00
2023-03-25T13:17:07.900Z,62.75
2023-03-25T13:18:08.718Z,61.07
2023-03-25T13:19:11.407Z,62.80
2023-03-25T13:20:15.064Z,63.00
2023-03-25T13:21:13.763Z,60.29
2023-03-25T13:22:10.649Z,63.55
2023-03-25T13:23:07.840Z,60.66
2023-03-25T13:24:08.149Z,62.10
2023-03-25T13:25:11.697Z,64.82
2023-03-25T13:26:08.753Z,64.82
2023-03-25T13:27:23.340Z,65.15
2023-03-25T13:42:50.316Z,63.66
2023-03-25T13:43:49.536Z,62.90
2023-03-25T13:46:14.939Z,63.62
2023-03-25T13:46:16.990Z,0.00
2023-03-25T13:47:16.607Z,62.20
2023-03-25T13:53:57.677Z,61.80
2023-03-25T13:55:01.737Z,61.54
2023-03-25T13:55:58.762Z,62.66
2023-03-25T13:57:07.726Z,62.68
2023-03-25T13:57:58.505Z,63.36
2023-03-25T13:59:08.118Z,63.28
2023-03-25T14:00:14.600Z,64.69
2023-03-25T14:01:14.668Z,63.76
2023-03-25T14:02:12.205Z,61.68
2023-03-25T14:03:00.853Z,61.42
2023-03-25T14:04:01.499Z,63.27
2023-03-25T14:05:04.371Z,64.72
2023-03-25T14:06:00.835Z,62.80
2023-03-25T14:06:58.180Z,61.42
2023-03-25T14:07:58.041Z,65.59
2023-03-25T14:09:05.490Z,61.61
2023-03-25T14:09:58.040Z,60.08
2023-03-25T14:10:58.242Z,60.72
2023-03-25T14:12:00.541Z,61.40
2023-03-25T14:12:57.874Z,61.80
2023-03-25T14:17:15.629Z,61.52
2023-03-25T14:18:16.451Z,58.58
2023-03-25T14:19:16.165Z,58.88
2023-03-25T14:37:46.588Z,59.66
2023-03-25T14:38:42.649Z,60.47
2023-03-25T14:39:42.196Z,60.36
2023-03-25T14:40:55.403Z,61.80
2023-03-25T14:41:44.818Z,60.67
2023-03-25T14:42:44.214Z,60.50
2023-03-25T14:43:47.759Z,62.15
2023-03-25T14:44:52.500Z,60.61
2023-03-25T14:45:58.189Z,62.17
2023-03-25T14:46:45.272Z,61.13
2023-03-25T14:47:44.666Z,59.71
2023-03-25T14:52:54.859Z,60.92
2023-03-25T14:53:51.965Z,61.94
2023-03-25T14:54:52.841Z,61.97
2023-03-25T14:56:01.318Z,61.16
2023-03-25T14:57:07.859Z,61.85
2023-03-25T14:57:56.518Z,61.69
2023-03-25T14:58:55.342Z,59.67
2023-03-25T15:03:06.313Z,63.27
2023-03-25T15:04:06.295Z,63.73
2023-03-25T15:05:06.012Z,60.96
2023-03-25T15:06:07.310Z,60.91
2023-03-25T15:07:13.201Z,60.64
2023-03-25T15:08:09.652Z,62.41
2023-03-25T15:13:19.878Z,63.28
2023-03-25T15:14:21.702Z,61.72
2023-03-25T15:15:19.224Z,61.83
2023-03-25T15:16:22.447Z,62.09
2023-03-25T15:17:38.261Z,61.69
2023-03-25T15:18:22.241Z,61.66
2023-03-25T15:23:05.740Z,63.10
2023-03-25T15:24:05.564Z,61.20
2023-03-25T15:25:14.083Z,62.26
2023-03-25T15:26:06.079Z,60.22
2023-03-25T15:27:17.880Z,59.73
2023-03-25T15:28:06.391Z,60.87
2023-03-25T15:29:06.396Z,61.80
2023-03-25T15:30:09.829Z,61.93
2023-03-25T15:31:07.895Z,61.95
2023-03-25T15:32:06.688Z,63.62
2023-03-25T16:20:33.582Z,63.22
2023-03-25T16:21:33.168Z,65.37
2023-03-25T16:22:33.214Z,63.56
2023-03-25T16:23:33.164Z,63.44
2023-03-25T16:24:33.309Z,63.73
2023-03-25T16:25:33.058Z,66.24
2023-03-25T16:26:33.540Z,65.05
2023-03-25T16:27:33.023Z,62.65
2023-03-25T16:28:35.088Z,63.56
2023-03-25T16:29:33.137Z,63.18
2023-03-25T16:30:34.026Z,63.30
2023-03-25T16:31:34.943Z,63.42
2023-03-25T16:32:33.472Z,63.25
2023-03-25T16:33:33.030Z,63.01
2023-03-25T16:34:33.228Z,64.20
2023-03-25T16:35:33.045Z,62.75
2023-03-25T16:36:34.340Z,65.63
2023-03-25T16:37:32.945Z,63.04
2023-03-25T16:38:32.932Z,62.51
2023-03-25T16:39:33.133Z,62.92
2023-03-25T16:40:33.049Z,63.10
2023-03-25T16:41:34.778Z,64.09
2023-03-25T16:43:07.728Z,63.77
2023-03-25T16:49:02.836Z,64.71
